Time;durP1;ratioP1;P1;durP2;ratioP2;P2;SDS_P1;SDS_P2;PMS_P1;PMS_P2;Temp;Humidity;BMP_temperature;BMP_pressure;BME280_temperature;BME280_humidity;BME280_pressure;Samples;Min_cycle;Max_cycle;Signal;HPM_P1;HPM_P2
2021/11/17 02:27:06;;;;;;;9.87;7.47;;;8.80;71.90;;;;;;5047144;28;20537;-80
2021/11/17 02:29:50;;;;;;;11.63;8.30;;;8.80;71.90;;;;;;5032754;28;20039;-80
2021/11/17 02:32:31;;;;;;;12.70;7.90;;;8.80;72.10;;;;;;5068228;28;20111;-80
2021/11/17 02:34:57;;;;;;;10.53;7.90;;;8.80;72.10;;;;;;5047648;28;20060;-80
2021/11/17 02:37:31;;;;;;;12.67;8.60;;;8.80;72.10;;;;;;5071875;28;20056;-80
2021/11/17 02:40:31;;;;;;;9.77;6.80;;;8.80;72.20;;;;;;5036829;28;20025;-80
2021/11/17 02:43:00;;;;;;;12.50;8.20;;;8.80;72.20;;;;;;5050658;28;20040;-80
2021/11/17 02:45:32;;;;;;;10.27;7.93;;;8.80;72.10;;;;;;5053459;28;20021;-80
2021/11/17 02:48:13;;;;;;;10.30;6.90;;;8.80;72.10;;;;;;5031215;28;20024;-81
2021/11/17 02:50:55;;;;;;;10.37;6.77;;;8.80;72.20;;;;;;5029299;28;20048;-82
2021/11/17 02:53:56;;;;;;;8.67;6.50;;;8.80;72.20;;;;;;5032620;28;20616;-79
2021/11/17 02:57:00;;;;;;;10.27;6.70;;;8.80;72.10;;;;;;5053191;28;20057;-79
2021/11/17 02:59:41;;;;;;;8.50;6.30;;;8.80;72.10;;;;;;5042795;28;21095;-79
2021/11/17 03:02:13;;;;;;;8.80;6.33;;;8.80;72.00;;;;;;5025682;28;20472;-80
2021/11/17 03:04:51;;;;;;;12.98;7.25;;;8.80;72.00;;;;;;5056583;28;20021;-80
2021/11/17 03:07:53;;;;;;;8.53;5.90;;;8.90;72.00;;;;;;5033092;28;20029;-80
2021/11/17 03:10:51;;;;;;;9.83;6.10;;;8.80;71.90;;;;;;5015788;28;20048;-81
2021/11/17 03:13:48;;;;;;;8.10;5.03;;;8.80;72.00;;;;;;5025857;28;20548;-80
2021/11/17 03:16:17;;;;;;;8.50;5.43;;;8.80;72.10;;;;;;5028711;28;20068;-81
2021/11/17 03:19:01;;;;;;;10.13;5.83;;;8.80;72.00;;;;;;5053920;28;20035;-80
2021/11/17 03:21:45;;;;;;;7.70;5.70;;;8.80;72.00;;;;;;5055057;28;20029;-81
2021/11/17 03:24:17;;;;;;;8.80;5.80;;;8.80;71.80;;;;;;5035178;28;20017;-79
2021/11/17 03:27:05;;;;;;;8.85;6.82;;;8.80;71.80;;;;;;5057619;28;20065;-80
2021/11/17 03:29:39;;;;;;;9.30;6.43;;;8.80;71.80;;;;;;5024726;28;20068;-80
2021/11/17 03:32:30;;;;;;;12.67;7.33;;;8.80;71.70;;;;;;5038894;28;20120;-80
2021/11/17 03:35:10;;;;;;;13.17;6.63;;;8.80;71.70;;;;;;5034428;28;20029;-80
2021/11/17 03:38:05;;;;;;;11.30;6.63;;;8.80;71.80;;;;;;5006391;28;20039;-80
2021/11/17 03:40:40;;;;;;;9.97;6.10;;;8.80;71.90;;;;;;5037451;28;20060;-80
2021/11/17 03:43:18;;;;;;;8.13;5.73;;;8.80;71.90;;;;;;5062357;28;20040;-80
2021/11/17 03:45:50;;;;;;;9.07;6.20;;;8.80;71.80;;;;;;5053103;28;20028;-80
2021/11/17 03:48:37;;;;;;;9.00;6.43;;;8.80;71.70;;;;;;5075840;28;20021;-80
2021/11/17 03:51:18;;;;;;;8.90;5.30;;;8.80;71.90;;;;;;5067573;28;20161;-79
2021/11/17 03:53:47;;;;;;;11.57;6.57;;;8.80;71.80;;;;;;5055023;28;20506;-80
2021/11/17 03:56:34;;;;;;;9.93;6.53;;;8.80;71.80;;;;;;5085033;28;20082;-80
2021/11/17 03:59:15;;;;;;;8.23;6.17;;;8.80;71.80;;;;;;5065852;28;20033;-80
2021/11/17 04:02:18;;;;;;;7.80;5.47;;;8.80;71.70;;;;;;5071049;28;20028;-80
2021/11/17 04:04:44;;;;;;;9.55;6.90;;;8.70;71.90;;;;;;5062219;28;20108;-80
2021/11/17 04:07:21;;;;;;;10.30;6.33;;;8.80;72.00;;;;;;5088166;28;20110;-81
2021/11/17 04:10:15;;;;;;;14.57;7.93;;;8.80;72.00;;;;;;5063901;28;20056;-80
2021/11/17 04:12:44;;;;;;;16.33;6.53;;;8.70;71.90;;;;;;5066904;28;20024;-80
2021/11/17 04:15:28;;;;;;;7.33;5.80;;;8.70;71.90;;;;;;5061992;28;20052;-80
2021/11/17 04:18:23;;;;;;;7.97;5.50;;;8.70;72.00;;;;;;5067160;28;20060;-80
2021/11/17 04:20:55;;;;;;;9.00;5.77;;;8.70;72.00;;;;;;5054337;28;20487;-80
2021/11/17 04:24:00;;;;;;;10.77;5.80;;;8.60;72.00;;;;;;5068739;28;20495;-80
2021/11/17 04:26:28;;;;;;;7.83;5.73;;;8.60;72.20;;;;;;5071286;28;20040;-81
2021/11/17 04:29:09;;;;;;;8.80;5.43;;;8.70;72.10;;;;;;5073289;28;20021;-80
2021/11/17 04:31:41;;;;;;;9.90;6.33;;;8.70;72.00;;;;;;5045765;28;20387;-80
2021/11/17 04:34:24;;;;;;;8.40;5.70;;;8.70;72.00;;;;;;5060703;28;20404;-80
2021/11/17 04:36:59;;;;;;;12.30;6.50;;;8.70;72.00;;;;;;5075913;28;20353;-80
2021/11/17 04:39:54;;;;;;;9.27;5.90;;;8.70;71.90;;;;;;5059691;28;20040;-80
2021/11/17 04:42:26;;;;;;;7.80;5.30;;;8.70;72.00;;;;;;5070934;28;20492;-80
2021/11/17 04:44:54;;;;;;;7.53;5.47;;;8.70;71.80;;;;;;5055625;28;20024;-80
2021/11/17 04:47:29;;;;;;;9.60;5.60;;;8.70;71.90;;;;;;5075539;28;20449;-80
2021/11/17 04:49:55;;;;;;;7.90;5.73;;;8.70;71.80;;;;;;5056150;28;20040;-80
2021/11/17 04:52:24;;;;;;;7.90;5.80;;;8.70;71.70;;;;;;5080218;28;20387;-80
2021/11/17 04:55:36;;;;;;;8.27;5.07;;;8.70;72.30;;;;;;5080524;28;20020;-80
2021/11/17 04:58:07;;;;;;;9.47;5.40;;;8.70;71.70;;;;;;5008738;28;20531;-80
2021/11/17 05:01:00;;;;;;;8.93;5.77;;;8.70;71.60;;;;;;5059672;28;20028;-80
2021/11/17 05:03:48;;;;;;;8.88;5.55;;;8.70;71.50;;;;;;5051277;28;20036;-80
2021/11/17 05:06:42;;;;;;;11.70;6.10;;;8.70;71.60;;;;;;5059947;28;20503;-80
2021/11/17 05:09:38;;;;;;;8.10;5.73;;;8.70;71.70;;;;;;5057011;28;20032;-80
2021/11/17 05:12:10;;;;;;;9.47;5.93;;;8.70;71.70;;;;;;5074723;28;20029;-80
2021/11/17 05:15:06;;;;;;;11.50;5.65;;;8.70;71.70;;;;;;5057311;28;20032;-81
2021/11/17 05:18:01;;;;;;;7.17;5.47;;;8.70;71.80;;;;;;5077670;28;20509;-82
2021/11/17 05:20:44;;;;;;;7.17;5.07;;;8.70;71.70;;;;;;5052159;28;20024;-81
2021/11/17 05:23:16;;;;;;;7.20;5.20;;;8.70;71.70;;;;;;5069274;28;20129;-81
2021/11/17 05:25:57;;;;;;;8.13;5.10;;;8.70;71.70;;;;;;5051619;28;20360;-81
2021/11/17 05:29:01;;;;;;;11.53;5.33;;;8.70;71.60;;;;;;5070219;28;21046;-81
2021/11/17 05:31:58;;;;;;;8.13;6.13;;;8.70;71.60;;;;;;5027168;28;20064;-80
2021/11/17 05:34:39;;;;;;;7.40;5.33;;;8.70;71.70;;;;;;5082936;28;20021;-81
2021/11/17 05:37:19;;;;;;;9.00;5.50;;;8.70;71.70;;;;;;5082948;28;20414;-81
2021/11/17 05:39:51;;;;;;;9.67;6.00;;;8.70;71.70;;;;;;5045045;28;20025;-81
2021/11/17 05:42:35;;;;;;;12.37;6.33;;;8.70;71.70;;;;;;5061940;28;20055;-80
2021/11/17 05:45:13;;;;;;;7.37;5.40;;;8.70;71.70;;;;;;5042286;28;20036;-80
2021/11/17 05:48:13;;;;;;;7.03;5.63;;;8.70;71.60;;;;;;5023472;28;20032;-80
2021/11/17 05:51:03;;;;;;;7.47;5.40;;;8.80;71.70;;;;;;5049188;28;20113;-81
2021/11/17 05:53:44;;;;;;;9.63;6.43;;;8.70;71.50;;;;;;5063366;28;20060;-80
2021/11/17 05:56:25;;;;;;;10.57;6.53;;;8.70;71.60;;;;;;5031581;28;20071;-80
2021/11/17 05:59:06;;;;;;;12.13;5.83;;;8.70;71.60;;;;;;5049743;28;20036;-80
2021/11/17 06:01:41;;;;;;;8.40;5.83;;;8.70;71.60;;;;;;5024591;28;20036;-80
2021/11/17 06:04:07;;;;;;;9.80;6.27;;;8.70;71.60;;;;;;5054218;28;20056;-80
2021/11/17 06:06:39;;;;;;;13.87;7.50;;;8.70;71.40;;;;;;5056232;28;20056;-81
2021/11/17 06:09:07;;;;;;;14.45;6.63;;;8.70;71.50;;;;;;5051387;28;20041;-81
2021/11/17 06:11:45;;;;;;;11.27;7.10;;;8.70;71.50;;;;;;5048528;28;20039;-80
2021/11/17 06:14:15;;;;;;;12.37;6.43;;;8.70;71.40;;;;;;5048022;28;20028;-80
2021/11/17 06:16:48;;;;;;;11.83;6.37;;;8.70;71.40;;;;;;5020787;28;20039;-80
2021/11/17 06:19:18;;;;;;;10.80;6.20;;;8.70;71.40;;;;;;5033192;28;20111;-80
2021/11/17 06:21:44;;;;;;;9.90;5.70;;;8.70;71.50;;;;;;5023203;28;20405;-80
2021/11/17 06:24:13;;;;;;;9.10;6.00;;;8.70;71.50;;;;;;5034737;28;20400;-80
2021/11/17 06:26:42;;;;;;;8.33;5.80;;;8.70;71.60;;;;;;5056522;28;20106;-80
2021/11/17 06:29:19;;;;;;;12.33;6.40;;;8.70;71.50;;;;;;5017062;28;20038;-80
2021/11/17 06:31:46;;;;;;;10.07;6.17;;;8.70;71.50;;;;;;5031610;28;20037;-80
2021/11/17 06:34:30;;;;;;;8.80;6.90;;;8.70;71.70;;;;;;5033010;28;20037;-80
2021/11/17 06:36:57;;;;;;;13.90;7.30;;;8.70;71.50;;;;;;5060319;28;20478;-80
2021/11/17 06:39:23;;;;;;;9.30;6.90;;;8.70;71.50;;;;;;5024250;28;20033;-80
2021/11/17 06:41:49;;;;;;;9.77;6.63;;;8.70;71.50;;;;;;5047038;28;20091;-80
2021/11/17 06:44:15;;;;;;;9.17;6.47;;;8.70;71.40;;;;;;5063599;28;20033;-79
2021/11/17 06:46:41;;;;;;;13.23;7.07;;;8.70;71.50;;;;;;5051420;28;20135;-79
2021/11/17 06:49:07;;;;;;;9.83;6.83;;;8.70;71.40;;;;;;5051444;28;20025;-80
2021/11/17 06:51:32;;;;;;;9.87;6.37;;;8.80;71.40;;;;;;5060910;28;20025;-80
2021/11/17 06:53:59;;;;;;;9.30;6.97;;;8.70;71.30;;;;;;5033579;28;20107;-80
2021/11/17 06:56:25;;;;;;;10.03;6.03;;;8.70;71.40;;;;;;5050861;28;20025;-80
2021/11/17 06:58:50;;;;;;;9.63;5.57;;;8.70;71.50;;;;;;5033539;28;20396;-79
2021/11/17 07:01:16;;;;;;;9.57;5.53;;;8.70;71.50;;;;;;5042297;28;20043;-79
2021/11/17 07:03:42;;;;;;;12.50;6.37;;;8.70;71.50;;;;;;5054924;28;20029;-80
2021/11/17 07:06:09;;;;;;;12.53;6.70;;;8.80;71.50;;;;;;5071713;28;20029;-80
2021/11/17 07:08:35;;;;;;;10.93;7.07;;;8.70;71.40;;;;;;5065735;28;20047;-79
2021/11/17 07:11:00;;;;;;;10.30;6.27;;;8.80;71.50;;;;;;5051862;28;20036;-79
2021/11/17 07:13:26;;;;;;;8.30;6.00;;;8.80;71.40;;;;;;5081708;28;20033;-79
2021/11/17 07:15:52;;;;;;;9.87;6.80;;;8.80;71.30;;;;;;5070645;28;20028;-79
2021/11/17 07:18:18;;;;;;;11.07;6.37;;;8.80;71.30;;;;;;5037879;28;20064;-79
2021/11/17 07:20:44;;;;;;;12.10;7.60;;;8.80;71.30;;;;;;5061075;28;20052;-79
2021/11/17 07:23:11;;;;;;;11.40;6.17;;;8.80;71.30;;;;;;5045822;28;20387;-79
2021/11/17 07:25:37;;;;;;;11.40;6.07;;;8.80;71.20;;;;;;5034564;28;20052;-81
2021/11/17 07:28:03;;;;;;;8.90;6.40;;;8.90;71.50;;;;;;5065179;28;20067;-81
2021/11/17 07:30:37;;;;;;;11.90;6.50;;;8.90;71.50;;;;;;5065317;28;20456;-81
2021/11/17 07:33:04;;;;;;;11.40;6.27;;;8.90;71.20;;;;;;5052885;28;20712;-81
2021/11/17 07:35:33;;;;;;;10.37;6.73;;;8.90;71.20;;;;;;5062749;28;20039;-81
2021/11/17 07:38:03;;;;;;;12.93;6.40;;;8.90;71.30;;;;;;5063592;28;20029;-81
2021/11/17 07:40:32;;;;;;;10.90;6.43;;;9.00;71.40;;;;;;5056299;28;20044;-81
2021/11/17 07:42:58;;;;;;;10.73;6.83;;;9.00;71.30;;;;;;5050659;28;20057;-81
2021/11/17 07:45:24;;;;;;;12.90;6.87;;;9.00;71.20;;;;;;5072092;28;20154;-81
2021/11/17 07:47:51;;;;;;;10.33;6.40;;;9.00;71.10;;;;;;5057202;28;20021;-81
2021/11/17 07:50:18;;;;;;;10.90;7.07;;;9.00;71.10;;;;;;5075921;28;20032;-80
2021/11/17 07:52:44;;;;;;;9.50;5.83;;;9.00;71.20;;;;;;5057921;28;20039;-81
2021/11/17 07:55:12;;;;;;;11.57;6.80;;;9.00;71.00;;;;;;5043652;28;20116;-81
2021/11/17 07:57:41;;;;;;;11.87;6.47;;;9.00;71.10;;;;;;5071500;28;20059;-80
2021/11/17 08:00:11;;;;;;;8.13;5.50;;;9.00;71.00;;;;;;5055351;28;20048;-81
2021/11/17 08:02:37;;;;;;;10.03;5.67;;;9.00;70.90;;;;;;5058241;28;20082;-81
2021/11/17 08:05:05;;;;;;;10.33;6.30;;;9.10;71.00;;;;;;5051252;28;20167;-80
2021/11/17 08:07:30;;;;;;;10.37;6.17;;;9.10;70.90;;;;;;5068340;28;20468;-81
2021/11/17 08:09:57;;;;;;;10.10;6.27;;;9.10;70.80;;;;;;5056485;28;20020;-81
2021/11/17 08:12:23;;;;;;;10.07;6.60;;;9.10;70.80;;;;;;5041781;28;20033;-81
2021/11/17 08:14:49;;;;;;;10.50;6.10;;;9.10;70.80;;;;;;5055628;28;20021;-81
2021/11/17 08:17:15;;;;;;;9.63;6.27;;;9.10;70.70;;;;;;5057151;28;20074;-81
2021/11/17 08:19:41;;;;;;;8.87;6.87;;;9.20;70.70;;;;;;5056883;28;20025;-81
2021/11/17 08:22:07;;;;;;;10.07;6.87;;;9.20;70.70;;;;;;5043098;28;20035;-81
2021/11/17 08:24:37;;;;;;;10.20;7.33;;;9.20;70.60;;;;;;5056868;28;20021;-81
2021/11/17 08:27:06;;;;;;;10.20;7.07;;;9.10;70.60;;;;;;5053814;28;20492;-81
2021/11/17 08:29:32;;;;;;;20.37;8.30;;;9.10;70.60;;;;;;5059016;28;20132;-81
2021/11/17 08:31:58;;;;;;;11.33;6.67;;;9.10;70.60;;;;;;5053309;28;20029;-81
2021/11/17 08:34:24;;;;;;;10.43;6.80;;;9.20;70.50;;;;;;5037089;28;20044;-81
2021/11/17 08:36:50;;;;;;;10.93;7.37;;;9.20;70.70;;;;;;5056511;28;20036;-81
2021/11/17 08:39:17;;;;;;;10.63;7.70;;;9.20;70.50;;;;;;5057754;28;20104;-81
2021/11/17 08:41:43;;;;;;;11.17;6.80;;;9.20;70.40;;;;;;5071542;28;20520;-81
2021/11/17 08:44:10;;;;;;;11.30;6.77;;;9.30;70.50;;;;;;5055204;28;20029;-80
2021/11/17 08:46:35;;;;;;;14.40;7.97;;;9.20;70.40;;;;;;5059228;28;20021;-81
2021/11/17 08:49:03;;;;;;;11.57;7.27;;;9.20;70.60;;;;;;5070987;28;20027;-81
2021/11/17 08:51:30;;;;;;;12.00;6.93;;;9.30;70.60;;;;;;5053437;28;20025;-79
2021/11/17 08:53:59;;;;;;;11.33;7.13;;;9.30;70.40;;;;;;5059443;28;20138;-79
2021/11/17 08:56:26;;;;;;;12.40;8.07;;;9.30;70.30;;;;;;5064479;28;20077;-79
2021/11/17 08:58:52;;;;;;;16.87;6.97;;;9.40;70.40;;;;;;5070746;28;20491;-79
2021/11/17 09:01:18;;;;;;;12.07;6.40;;;9.30;70.10;;;;;;5038185;28;20051;-79
2021/11/17 09:03:43;;;;;;;14.00;7.50;;;9.30;70.10;;;;;;5045311;28;20029;-79
2021/11/17 09:06:12;;;;;;;12.50;6.33;;;9.30;70.30;;;;;;5036828;28;20129;-79
2021/11/17 09:08:39;;;;;;;10.93;7.83;;;9.40;70.40;;;;;;5042838;28;20017;-79
2021/11/17 09:11:08;;;;;;;10.00;6.27;;;9.40;70.10;;;;;;5059890;28;20387;-79
2021/11/17 09:13:34;;;;;;;14.53;6.93;;;9.40;70.00;;;;;;5058032;28;20055;-80
2021/11/17 09:16:01;;;;;;;9.87;6.43;;;9.50;70.00;;;;;;5073540;28;20096;-80
2021/11/17 09:18:30;;;;;;;14.17;6.43;;;9.50;69.80;;;;;;5056554;28;20025;-80
2021/11/17 09:21:01;;;;;;;11.80;7.33;;;9.50;69.70;;;;;;5054463;28;20032;-80
2021/11/17 09:23:29;;;;;;;10.50;7.00;;;9.60;69.80;;;;;;5075319;28;20024;-80
2021/11/17 09:25:57;;;;;;;15.50;7.60;;;9.60;69.70;;;;;;5054387;28;20063;-80
2021/11/17 09:28:24;;;;;;;11.80;7.23;;;9.70;69.60;;;;;;5072169;28;20372;-80
2021/11/17 09:30:51;;;;;;;13.07;8.17;;;9.70;69.50;;;;;;5052769;28;20078;-80
2021/11/17 09:33:18;;;;;;;10.00;6.83;;;9.70;69.30;;;;;;5061819;28;20035;-80
2021/11/17 09:35:45;;;;;;;14.97;7.87;;;9.70;69.40;;;;;;5073818;28;20035;-80
2021/11/17 09:38:13;;;;;;;13.70;7.17;;;9.70;69.10;;;;;;5056076;28;20081;-79
2021/11/17 09:40:52;;;;;;;12.57;8.63;;;9.70;69.20;;;;;;5073399;28;20514;-80
2021/11/17 09:43:22;;;;;;;11.93;7.53;;;9.70;69.20;;;;;;5055923;28;20086;-79
2021/11/17 09:45:50;;;;;;;12.37;6.77;;;9.70;69.20;;;;;;5073753;28;20364;-79
2021/11/17 09:48:19;;;;;;;12.03;7.07;;;9.70;69.30;;;;;;5056075;28;20483;-80
2021/11/17 09:51:11;;;;;;;11.57;6.47;;;9.70;69.10;;;;;;5055782;28;20418;-80
2021/11/17 09:54:01;;;;;;;9.00;6.00;;;9.80;69.10;;;;;;5047217;28;20042;-79
2021/11/17 09:56:58;;;;;;;14.83;6.73;;;9.80;69.00;;;;;;5062390;28;20025;-80
2021/11/17 09:59:42;;;;;;;7.77;5.47;;;9.80;68.70;;;;;;5034983;28;20482;-79
2021/11/17 10:02:17;;;;;;;6.80;4.50;;;9.90;68.60;;;;;;5069205;28;20345;-80
2021/11/17 10:04:56;;;;;;;10.90;6.53;;;9.90;68.70;;;;;;5071879;28;20344;-80
2021/11/17 10:08:08;;;;;;;12.03;6.20;;;9.90;68.40;;;;;;5046957;28;20565;-80
2021/11/17 10:13:35;;;;;;;11.33;6.03;;;9.90;68.30;;;;;;5058504;28;20039;-81
2021/11/17 10:16:02;;;;;;;11.23;6.03;;;10.00;68.20;;;;;;5063651;28;20081;-80
2021/11/17 10:18:36;;;;;;;11.77;6.80;;;10.00;68.10;;;;;;5054053;28;20025;-80
2021/11/17 10:21:31;;;;;;;9.43;6.47;;;10.00;68.00;;;;;;5051466;28;20457;-79
2021/11/17 10:24:14;;;;;;;7.30;5.03;;;10.00;67.80;;;;;;5054911;28;20033;-81
2021/11/17 10:26:51;;;;;;;6.70;4.55;;;10.10;67.80;;;;;;5043585;28;20115;-81
2021/11/17 10:29:31;;;;;;;8.40;5.07;;;10.10;67.50;;;;;;5054354;28;20034;-80
2021/11/17 10:32:04;;;;;;;12.33;5.03;;;10.20;67.10;;;;;;5042320;28;20037;-80
2021/11/17 10:34:34;;;;;;;8.77;4.53;;;10.20;67.10;;;;;;5072507;28;20024;-81
2021/11/17 10:37:11;;;;;;;8.30;5.67;;;10.20;66.80;;;;;;5066125;28;20020;-80
2021/11/17 10:39:39;;;;;;;8.00;4.97;;;10.20;66.70;;;;;;5069921;28;21927;-81
2021/11/17 10:42:11;;;;;;;9.50;5.00;;;10.30;66.80;;;;;;5067836;28;20090;-81
2021/11/17 10:44:52;;;;;;;10.40;4.47;;;10.30;66.70;;;;;;5074286;28;20048;-81
2021/11/17 10:47:24;;;;;;;11.23;5.47;;;10.30;66.70;;;;;;5053982;28;20021;-81
2021/11/17 10:50:16;;;;;;;8.10;5.33;;;10.30;66.80;;;;;;5053043;28;20047;-81
2021/11/17 10:52:45;;;;;;;12.00;6.70;;;10.30;66.70;;;;;;5042100;28;20033;-80
2021/11/17 10:55:34;;;;;;;6.93;4.63;;;10.30;66.90;;;;;;5067650;28;20021;-81
2021/11/17 10:58:03;;;;;;;7.67;5.03;;;10.30;66.40;;;;;;5057130;28;20013;-81
2021/11/17 11:00:34;;;;;;;7.90;5.67;;;10.30;66.60;;;;;;5050258;28;20031;-81
2021/11/17 11:03:01;;;;;;;7.00;4.87;;;10.30;66.50;;;;;;5039742;28;20023;-81
2021/11/17 11:05:32;;;;;;;8.67;5.87;;;10.30;66.60;;;;;;5046864;28;20595;-80
2021/11/17 11:08:24;;;;;;;8.80;5.20;;;10.20;66.70;;;;;;5043375;28;20657;-80
2021/11/17 11:11:00;;;;;;;10.27;5.33;;;10.30;66.80;;;;;;5055465;28;20068;-81
2021/11/17 11:13:40;;;;;;;9.53;5.43;;;10.30;66.40;;;;;;5057580;28;20078;-81
2021/11/17 11:16:25;;;;;;;6.87;4.10;;;10.20;66.60;;;;;;5041587;28;20056;-81
2021/11/17 11:19:08;;;;;;;8.07;4.63;;;10.30;66.40;;;;;;5042043;28;20111;-81
2021/11/17 11:21:57;;;;;;;7.50;5.07;;;10.30;66.50;;;;;;5063942;28;20025;-80
2021/11/17 11:24:48;;;;;;;6.80;3.83;;;10.40;66.30;;;;;;5059739;28;20511;-81
2021/11/17 11:27:26;;;;;;;9.70;4.77;;;10.40;66.10;;;;;;5061518;28;20036;-81
2021/11/17 11:30:06;;;;;;;6.63;4.23;;;10.50;66.20;;;;;;5056941;28;20396;-81
2021/11/17 11:32:31;;;;;;;6.83;4.63;;;10.50;65.80;;;;;;5072491;28;20070;-81
2021/11/17 11:34:58;;;;;;;7.03;3.90;;;10.50;66.20;;;;;;5073173;28;20408;-81
2021/11/17 11:37:24;;;;;;;6.03;4.23;;;10.50;65.90;;;;;;5066289;28;20040;-81
2021/11/17 11:39:52;;;;;;;7.00;3.93;;;10.50;65.70;;;;;;5044729;28;20119;-81
2021/11/17 11:42:24;;;;;;;6.13;4.03;;;10.40;65.90;;;;;;5053511;28;20061;-81
2021/11/17 11:44:56;;;;;;;5.80;3.70;;;10.40;65.50;;;;;;5070886;28;20029;-81
2021/11/17 11:47:22;;;;;;;;;;;10.40;65.70;;;;;;5061620;28;20033;-81
2021/11/17 11:50:23;;;;;;;7.23;3.10;;;10.40;65.80;;;;;;5057997;28;19924;-81
2021/11/17 11:53:27;;;;;;;7.03;3.57;;;10.50;65.90;;;;;;5036728;28;20568;-81
2021/11/17 11:55:53;;;;;;;5.93;3.50;;;10.50;65.80;;;;;;5049357;28;20522;-81
2021/11/17 11:58:18;;;;;;;3.90;2.60;;;10.50;65.70;;;;;;5076317;28;20021;-80
2021/11/17 12:00:47;;;;;;;10.73;3.50;;;10.50;65.60;;;;;;5055260;28;20105;-81
2021/11/17 12:03:16;;;;;;;7.03;3.63;;;10.60;65.90;;;;;;5060019;28;20025;-81
2021/11/17 12:06:06;;;;;;;6.23;3.20;;;10.70;65.70;;;;;;5052587;28;20476;-81
2021/11/17 12:08:39;;;;;;;5.30;3.27;;;10.80;65.30;;;;;;5053522;28;20025;-81
2021/11/17 12:11:05;;;;;;;7.37;3.73;;;10.80;65.10;;;;;;5063228;28;20081;-81
2021/11/17 12:13:42;;;;;;;6.87;3.43;;;10.80;65.20;;;;;;5070823;28;20358;-81
2021/11/17 12:16:17;;;;;;;5.80;3.37;;;10.80;65.10;;;;;;5039781;28;20028;-81
2021/11/17 12:18:50;;;;;;;8.67;4.03;;;10.90;65.10;;;;;;5070445;28;20028;-81
2021/11/17 12:21:20;;;;;;;7.00;3.70;;;10.90;65.30;;;;;;5072279;28;20029;-81
2021/11/17 12:24:01;;;;;;;6.57;4.03;;;10.90;65.20;;;;;;5056097;28;20033;-81
2021/11/17 12:26:27;;;;;;;5.77;3.53;;;10.90;64.80;;;;;;5050918;28;20025;-81
2021/11/17 12:29:04;;;;;;;7.53;4.47;;;10.90;64.80;;;;;;5055340;28;20029;-79
2021/11/17 12:32:07;;;;;;;10.43;4.93;;;10.90;64.90;;;;;;5084160;28;20403;-80
2021/11/17 12:34:55;;;;;;;7.82;3.88;;;10.90;64.70;;;;;;5057434;28;20107;-80
2021/11/17 12:37:28;;;;;;;6.30;3.63;;;10.80;64.60;;;;;;5051868;28;20060;-80
2021/11/17 12:40:00;;;;;;;6.40;4.10;;;10.80;64.70;;;;;;5066529;28;20036;-80
2021/11/17 12:42:53;;;;;;;8.10;4.50;;;10.80;64.40;;;;;;5053768;28;20064;-80
2021/11/17 12:45:25;;;;;;;5.33;3.37;;;10.70;64.60;;;;;;5043711;28;20082;-80
2021/11/17 12:47:53;;;;;;;6.50;3.77;;;10.70;64.60;;;;;;5056091;28;20033;-80
2021/11/17 12:50:35;;;;;;;10.00;6.27;;;10.70;64.60;;;;;;5065983;28;20128;-80
2021/11/17 12:53:08;;;;;;;13.57;8.63;;;10.80;64.60;;;;;;5072827;28;20075;-80
2021/11/17 12:55:45;;;;;;;6.47;4.43;;;10.80;64.50;;;;;;5054854;28;20490;-80
2021/11/17 12:58:23;;;;;;;6.33;3.90;;;10.70;64.30;;;;;;5072862;28;20025;-80
2021/11/17 13:01:18;;;;;;;5.30;3.80;;;10.60;64.50;;;;;;5063398;28;20380;-79
2021/11/17 13:03:47;;;;;;;7.87;3.40;;;10.50;64.70;;;;;;5045196;28;20144;-80
2021/11/17 13:06:33;;;;;;;6.37;3.80;;;10.50;64.90;;;;;;5071975;28;20072;-79
2021/11/17 13:09:25;;;;;;;6.80;4.17;;;10.50;65.10;;;;;;5050354;28;20025;-81
2021/11/17 13:12:06;;;;;;;8.67;3.07;;;10.50;65.10;;;;;;5072628;28;20371;-79
2021/11/17 13:14:54;;;;;;;7.77;3.53;;;10.50;65.10;;;;;;5095308;28;20028;-80
2021/11/17 13:17:43;;;;;;;5.73;4.03;;;10.50;65.20;;;;;;5058084;28;20400;-80
2021/11/17 13:20:14;;;;;;;7.97;3.87;;;10.50;65.20;;;;;;5068290;28;20036;-80
2021/11/17 13:22:46;;;;;;;6.63;4.13;;;10.60;65.10;;;;;;5071904;28;20020;-82
2021/11/17 13:25:31;;;;;;;6.30;3.77;;;10.60;65.10;;;;;;5055640;28;20029;-80
2021/11/17 13:28:06;;;;;;;6.57;4.27;;;10.50;65.20;;;;;;5065572;28;20484;-80
2021/11/17 13:30:35;;;;;;;9.03;4.30;;;10.60;65.30;;;;;;5054422;28;20048;-81
2021/11/17 13:33:32;;;;;;;6.07;4.13;;;10.60;65.20;;;;;;5062664;28;20055;-81
2021/11/17 13:36:11;;;;;;;5.60;4.17;;;10.60;65.20;;;;;;5089371;28;20036;-81
2021/11/17 13:38:40;;;;;;;5.60;3.90;;;10.50;65.30;;;;;;5068073;28;20040;-81
2021/11/17 13:41:09;;;;;;;7.90;4.77;;;10.50;65.40;;;;;;5060542;28;20035;-81
2021/11/17 13:43:37;;;;;;;5.93;4.10;;;10.50;65.50;;;;;;5037838;28;20047;-81
2021/11/17 13:46:09;;;;;;;8.80;4.77;;;10.50;65.60;;;;;;5058263;28;20025;-81
2021/11/17 13:48:38;;;;;;;7.82;4.18;;;10.50;65.50;;;;;;5057858;28;20508;-81
2021/11/17 13:51:04;;;;;;;6.23;4.37;;;10.60;65.60;;;;;;5051690;28;20043;-81
2021/11/17 13:53:30;;;;;;;6.13;4.13;;;10.60;65.60;;;;;;5055315;28;20095;-81
2021/11/17 13:56:05;;;;;;;5.37;3.70;;;10.60;65.40;;;;;;5057625;28;20042;-81
2021/11/17 13:58:32;;;;;;;10.57;4.23;;;10.50;65.40;;;;;;5041888;28;20024;-80
2021/11/17 14:00:58;;;;;;;6.73;4.10;;;10.50;65.40;;;;;;5046132;28;20025;-80
2021/11/17 14:03:24;;;;;;;6.77;4.00;;;10.50;65.40;;;;;;5050251;28;20024;-80
2021/11/17 14:05:50;;;;;;;7.43;4.43;;;10.50;65.40;;;;;;5053918;28;20436;-81
2021/11/17 14:08:18;;;;;;;6.13;4.30;;;10.50;65.40;;;;;;5052412;28;20036;-80
2021/11/17 14:10:45;;;;;;;8.37;4.73;;;10.50;65.30;;;;;;5035293;28;20374;-80
2021/11/17 14:13:11;;;;;;;10.57;4.10;;;10.50;65.50;;;;;;5061644;28;20357;-81
2021/11/17 14:15:37;;;;;;;8.70;4.60;;;10.50;65.60;;;;;;5053221;28;20070;-80
2021/11/17 14:18:05;;;;;;;6.67;4.70;;;10.50;65.50;;;;;;5040531;28;20495;-81
2021/11/17 14:20:31;;;;;;;9.30;4.77;;;10.50;65.40;;;;;;5036452;28;20025;-80
2021/11/17 14:22:57;;;;;;;9.23;4.60;;;10.50;65.50;;;;;;5058622;28;20077;-81
2021/11/17 14:25:23;;;;;;;9.63;4.63;;;10.40;65.60;;;;;;5062404;28;20029;-81
2021/11/17 14:27:54;;;;;;;14.50;4.50;;;10.40;65.70;;;;;;5056424;28;21174;-81
2021/11/17 14:30:32;;;;;;;12.57;4.73;;;10.40;65.80;;;;;;5038136;28;20024;-81
2021/11/17 14:32:58;;;;;;;7.63;4.70;;;10.50;65.90;;;;;;5063417;28;20099;-80
2021/11/17 14:35:27;;;;;;;9.50;4.90;;;10.50;65.90;;;;;;5056180;28;20096;-81
2021/11/17 14:37:54;;;;;;;8.50;4.83;;;10.50;65.80;;;;;;5061445;28;20025;-81
2021/11/17 14:40:21;;;;;;;7.83;5.60;;;10.50;66.00;;;;;;5052975;28;20465;-81
2021/11/17 14:42:48;;;;;;;6.97;4.80;;;10.40;66.30;;;;;;5059839;28;20098;-81
2021/11/17 14:45:18;;;;;;;11.83;6.77;;;10.40;66.60;;;;;;5043856;28;20028;-81
2021/11/17 14:47:45;;;;;;;11.57;6.30;;;10.40;66.80;;;;;;5072275;28;20404;-81
2021/11/17 14:50:11;;;;;;;10.33;5.60;;;10.40;66.90;;;;;;5050102;28;20021;-81
2021/11/17 14:52:38;;;;;;;8.73;5.13;;;10.40;67.20;;;;;;5042702;28;20025;-81
2021/11/17 14:55:06;;;;;;;9.93;5.37;;;10.40;67.30;;;;;;5054866;28;20029;-81
2021/11/17 14:57:35;;;;;;;8.77;5.10;;;10.30;67.20;;;;;;5049479;28;20120;-81
2021/11/17 15:00:02;;;;;;;8.63;5.00;;;10.30;67.50;;;;;;5054507;28;20024;-81
2021/11/17 15:02:30;;;;;;;9.27;5.00;;;10.30;67.50;;;;;;5055185;28;20029;-81
2021/11/17 15:04:56;;;;;;;8.23;4.97;;;10.20;67.50;;;;;;5052405;28;20175;-81
2021/11/17 15:07:22;;;;;;;7.70;4.73;;;10.20;67.80;;;;;;5059851;28;20029;-81
2021/11/17 15:09:48;;;;;;;7.87;5.60;;;10.20;68.10;;;;;;5035161;28;20025;-81
2021/11/17 15:12:17;;;;;;;11.00;5.80;;;10.20;68.10;;;;;;5052805;28;20029;-81
2021/11/17 15:14:45;;;;;;;11.23;5.80;;;10.20;68.40;;;;;;5034824;28;20025;-81
2021/11/17 15:17:12;;;;;;;12.77;5.93;;;10.20;68.80;;;;;;5052483;28;20029;-81
2021/11/17 15:19:38;;;;;;;12.93;5.20;;;10.10;69.00;;;;;;5047707;28;20032;-81
2021/11/17 15:22:05;;;;;;;10.73;6.47;;;10.10;69.10;;;;;;5042215;28;20041;-81
2021/11/17 15:24:32;;;;;;;10.97;6.27;;;10.10;69.40;;;;;;5049127;28;20367;-81
2021/11/17 15:27:00;;;;;;;11.57;6.43;;;10.10;69.40;;;;;;5061475;28;20038;-81
2021/11/17 15:29:27;;;;;;;10.30;6.70;;;10.10;69.40;;;;;;5042081;28;20029;-80
2021/11/17 15:31:52;;;;;;;8.57;5.63;;;10.10;69.40;;;;;;5046337;28;20028;-81
2021/11/17 15:34:18;;;;;;;13.03;5.67;;;10.00;69.30;;;;;;5050194;28;20043;-80
2021/11/17 15:36:44;;;;;;;16.57;6.13;;;10.00;69.80;;;;;;5067650;28;20029;-81
2021/11/17 15:39:10;;;;;;;9.80;5.17;;;10.00;70.30;;;;;;5051317;28;20028;-81
2021/11/17 15:41:39;;;;;;;13.60;5.57;;;10.00;69.60;;;;;;5034668;28;20112;-81
2021/11/17 15:44:06;;;;;;;9.80;5.60;;;10.00;69.30;;;;;;5050455;28;20498;-81
2021/11/17 15:46:32;;;;;;;10.30;5.90;;;9.90;69.80;;;;;;5052431;28;20143;-81
2021/11/17 15:48:58;;;;;;;10.00;5.93;;;9.90;70.00;;;;;;5060437;28;20112;-81
2021/11/17 15:51:36;;;;;;;11.13;5.90;;;9.90;70.00;;;;;;5034023;28;20044;-81
2021/11/17 15:54:02;;;;;;;7.40;4.87;;;9.90;70.10;;;;;;5058774;28;20499;-81